Kezdőlap
METAR-TAF:

METAR-TAF

Repülőterek :

Puerto Peñasco, Mexikó

földrajzi szélesség: 31-21-07N, földrajzi hosszúság: 113-18-20W, magasság: 22 m

Jelenlegi meteorológiai megfigyelések

A jelentés 7 órával és 38 perccel ezelõtt készült, 23:40 UTC
Délkeleti szél 10 kt
Hőmérséklet 24°C
Páratartalom 41%
Légköri nyomás 1012 hPa
Látótávolság: 16.1 km
Szórványos felhőzet 20000 lábon

METAR: MMPE 242340Z 14010KT 10SM SCT200 24/10 A2987 RMK 8/002

Idő: 00:18 (07:18 UTC)


TAF: hiányzik

Meteorológiai megfigyelések és előrejelzések több, mint 4000 repülőtéren (METAR és TAF jelentéseket).

A térképen piros és sárga pontok jelzik az elérhető meteorológiai állomásokat.

Mozgassa az egeret a pont fölött, hogy megjelenjen az állomás neve.

Azután kattintson az időjárási megfigyelések és előrejelzések megtekintéséhez.

A térkép megváltoztatása: kattintson a fekete keresztel jelölt zöld gombra ráközelítéshez, a vonallal jelölt zöld gombra távolításhoz, vagy a zöld nyilakra a szomszédos térképek eléréséhez.


METAR-TAF: